x

Santa Monica Basin - 33nm Wsw Of Santa Monica, Ca (46025) Weather Station

2:20am - Wed 13th Dec 2017 All times are PST. -8 hours from GMT.

  • Wind
    7mph, 9mph gusts
  • Sea Temp 61°f
  • Sea Pressure 1015.6mb
  • Santa Monica Basin - 33nm Wsw Of Santa Monica, Ca
  • Santa Monica Basin - 33nm Wsw Of Santa Monica, Ca

More Historic Weather Station data

Upgrade to MSW Pro to gain access to the past 30 days of data for over 8000 Wavebouys and Weather Stations around the globe.

Join

Comparision Forecast

View Surf forecast
   
Wed 12/13 2:20am  -   -   -  7 9 mph 1015.6mb 61f
2:10am  -   -   -  7 7 mph 1015.7mb 61f
2:00am  -   -   -  7 9 mph 1015.7mb -
1:50am 3.5ft 13s 9s 4 7 mph 1015.8mb 61f
1:40am  -   -   -  4 4 mph 1015.7mb 61f
1:30am  -   -   -  4 7 mph 1015.8mb 61f
1:20am  -   -   -  4 4 mph 1015.8mb 61f
1:10am  -   -   -  7 7 mph 1015.8mb 61f
1:00am  -   -   -  7 7 mph 1015.9mb 61f
12:50am 3.5ft 12s 9s 7 7 mph 1015.8mb 61f
12:40am 3.5ft  -  9s 4 4 mph 1015.8mb 61f
12:30am  -   -   -  4 7 mph 1016mb 61f
12:20am  -   -   -  4 7 mph 1016mb 61f
12:10am  -   -   -  4 7 mph 1016.1mb 61f
12:00am  -   -   -  7 7 mph 1016.2mb 61f
Tue 12/12 11:50pm 3.5ft 14s 9s 7 7 mph 1016.3mb 61f
11:40pm  -   -   -  7 7 mph 1016.4mb 61f
11:30pm  -   -   -  7 7 mph 1016.4mb 61f
11:20pm  -   -   -  7 9 mph 1016.5mb 61f
11:10pm  -   -   -  7 9 mph 1016.4mb 61f
11:00pm  -   -   -  9 9 mph 1016.5mb 61f
10:50pm 4ft 12s 8s 9 9 mph 1016.5mb 61f
10:40pm 4ft  -  8s 9 11 mph 1016.5mb 61f
10:30pm  -   -   -  11 13 mph 1016.5mb 61f
10:20pm  -   -   -  11 11 mph 1016.5mb 61f
10:10pm  -   -   -  11 13 mph 1016.5mb 61f
10:00pm  -   -   -  11 13 mph 1016.5mb 61f
9:50pm 4ft 14s 8s 11 13 mph 1016.4mb 61f
9:40pm  -   -   -  11 13 mph 1016.4mb 61f
9:30pm  -   -   -  11 13 mph 1016.4mb 61f
9:20pm  -   -   -  11 13 mph 1016.4mb 61f
9:10pm  -   -   -  11 16 mph 1016.4mb 61f
9:00pm  -   -   -  13 16 mph 1016.4mb 61f
8:50pm 3.5ft 14s 7s 13 16 mph 1016.4mb 61f
8:40pm  -   -   -  11 13 mph 1016.4mb 61f
8:30pm  -   -   -  11 13 mph 1016.4mb -
8:20pm  -   -   -  11 13 mph 1016.5mb 61f
8:10pm  -   -   -  11 16 mph 1016.5mb 61f
8:00pm  -   -   -  11 13 mph 1016.5mb 61f
7:50pm 4ft 13s 9s 13 13 mph 1016.5mb 62f
7:40pm 4ft  -  9s 11 13 mph 1016.5mb 62f
7:30pm  -   -   -  11 13 mph 1016.5mb 62f
7:20pm  -   -   -  13 16 mph 1016.5mb 61f
7:10pm  -   -   -  13 13 mph 1016.7mb 61f
7:00pm  -   -   -  11 13 mph 1016.7mb 61f
6:50pm 3.5ft 14s 10s 11 13 mph 1016.7mb 62f
6:40pm 3.5ft  -  10s 11 11 mph 1016.8mb 62f
6:30pm  -   -   -  11 13 mph 1016.8mb 62f
6:20pm  -   -   -  11 13 mph 1016.9mb 62f
6:10pm  -   -   -  11 13 mph 1016.9mb 62f
6:00pm  -   -   -  11 13 mph 1016.9mb 62f
5:50pm 3.5ft 15s 11s 11 11 mph 1016.9mb 62f
5:40pm 3.5ft  -  11s 9 11 mph 1016.9mb 62f
5:30pm  -   -   -  9 11 mph 1016.9mb 62f
5:20pm  -   -   -  9 11 mph 1016.9mb 62f
5:10pm  -   -   -  9 11 mph 1016.9mb 62f
5:00pm  -   -   -  9 11 mph 1016.9mb 62f
4:50pm 3.5ft 14s 11s 9 11 mph 1016.9mb 62f
4:40pm 3.5ft  -  11s 9 11 mph 1016.9mb 62f
4:30pm  -   -   -  7 9 mph 1016.9mb 62f
4:20pm  -   -   -  7 9 mph 1016.9mb -
4:10pm  -   -   -  7 9 mph 1016.9mb 62f
4:00pm  -   -   -  9 11 mph 1017mb 62f
3:50pm 3.5ft 14s 11s 9 11 mph 1016.9mb -
3:40pm 3.5ft  -  11s 9 11 mph 1017mb 62f
3:30pm  -   -   -  7 9 mph 1017.1mb 62f
3:20pm  -   -   -  7 9 mph 1017.2mb 62f
3:10pm  -   -   -  7 9 mph 1017.2mb 62f
3:00pm  -   -   -  9 9 mph 1017.3mb 62f
2:50pm 3.5ft 15s 10s 7 11 mph 1017.4mb -
2:40pm 3.5ft  -  10s 7 9 mph 1017.6mb 62f
2:30pm  -   -   -  7 7 mph 1017.6mb -
2:20pm  -   -   -  4 4 mph 1017.6mb 62f
2:10pm  -   -   -  4 7 mph 1017.7mb 62f
2:00pm  -   -   -  4 7 mph 1017.8mb 62f
1:50pm 3.5ft 13s 10s 4 7 mph 1017.9mb 62f
1:40pm  -   -   -  4 7 mph 1018mb 62f
1:30pm  -   -   -  4 7 mph 1018.1mb 62f
1:20pm  -   -   -  4 7 mph 1018.2mb 62f
1:10pm  -   -   -  4 7 mph 1018.4mb 61f
1:00pm  -   -   -  4 7 mph 1018.6mb 61f
12:50pm 3.5ft 14s 10s 4 7 mph 1018.8mb 61f
12:40pm 3.5ft  -  10s 2 4 mph 1019mb 61f
12:30pm  -   -   -  4 4 mph 1019.3mb 61f
12:20pm  -   -   -  2 4 mph 1019.5mb 61f
12:10pm  -   -   -  2 4 mph 1019.7mb 61f
12:00pm  -   -   -  2 4 mph 1020mb 61f
11:50am 3.5ft 14s 9s 2 2 mph 1020.2mb 61f
11:40am  -   -   -   -  2 mph 1020.5mb 61f
11:30am  -   -   -  2 2 mph 1020.6mb 61f
11:20am  -   -   -  2 2 mph 1020.8mb 61f
11:10am  -   -   -   -  2 mph 1021mb -
11:00am  -   -   -   -  2 mph 1021.1mb 61f
10:50am 3.5ft 14s 10s  -  2 mph 1021.3mb 61f
10:40am  -   -   -  2 4 mph 1021.5mb 61f
10:30am  -   -   -  2 4 mph 1021.6mb 61f
10:20am  -   -   -  2 4 mph 1021.7mb 61f
10:10am  -   -   -  2 4 mph 1021.9mb 61f
10:00am  -   -   -  2 4 mph 1022mb 61f
9:50am 3.5ft 14s 10s 2 4 mph 1022.1mb 61f
9:40am  -   -   -  2 4 mph 1022.2mb 61f
9:30am  -   -   -  2 4 mph 1022.2mb -
9:20am  -   -   -  2 2 mph 1022.2mb 61f
9:10am  -   -   -   -  2 mph 1022.2mb 61f
9:00am  -   -   -   -  2 mph 1022.2mb 61f
8:50am 3.5ft 14s 10s  -  2 mph 1022.1mb 61f
8:40am 3.5ft  -  10s 2 2 mph 1022mb 61f
8:30am  -   -   -  2 4 mph 1021.8mb 61f
8:20am  -   -   -  2 4 mph 1021.8mb 61f
8:10am  -   -   -  2 2 mph 1021.7mb 61f
8:00am  -   -   -  2 4 mph 1021.7mb 61f
7:50am 3.5ft 15s 10s 2 4 mph 1021.6mb 61f
7:40am 3.5ft  -  10s 2 4 mph 1021.5mb 61f
7:30am  -   -   -  2 4 mph 1021.5mb 61f
7:20am  -   -   -  2 4 mph 1021.6mb 61f
7:10am  -   -   -  2 4 mph 1021.6mb 61f
7:00am  -   -   -  2 2 mph 1021.4mb 61f
6:50am 3.5ft 16s 11s  -  2 mph 1021.3mb 61f
6:40am  -   -   -  2 2 mph 1021.3mb 61f
6:30am  -   -   -  2 4 mph 1021.3mb 61f
6:20am  -   -   -  4 4 mph 1021.1mb 61f
6:10am  -   -   -  4 4 mph 1021.1mb 61f
6:00am  -   -   -  4 4 mph 1021mb 61f
5:50am 3.5ft 16s 10s 2 4 mph 1020.9mb 61f
5:40am 3.5ft  -  10s 2 4 mph 1020.9mb 61f
5:30am  -   -   -  2 2 mph 1020.9mb -
5:20am  -   -   -   -  2 mph 1021mb 61f
5:10am  -   -   -   -  2 mph 1020.9mb 61f
5:00am  -   -   -   -  2 mph 1021mb 61f
4:50am 3ft 15s 9s 2 2 mph 1021mb 61f
4:40am 3ft  -  9s 2 2 mph 1021.1mb -
4:30am  -   -   -  2 4 mph 1021.1mb 61f
4:20am  -   -   -  2 4 mph 1021.1mb 61f
4:10am  -   -   -  2 4 mph 1021.1mb 61f
4:00am  -   -   -  2 2 mph 1021.1mb 61f
3:50am 3ft 15s 9s 2 2 mph 1021.1mb 61f
3:40am  -   -   -  2 4 mph 1021.2mb 61f
3:30am  -   -   -  4 4 mph 1021.3mb 61f
3:20am  -   -   -  4 4 mph 1021.3mb 61f
3:10am  -   -   -  4 4 mph 1021.3mb 61f
3:00am  -   -   -  2 4 mph 1021.3mb 61f
2:50am 3.5ft 15s 9s 4 4 mph 1021.3mb 61f
2:40am  -   -   -  4 4 mph 1021.3mb 61f
2:30am  -   -   -  2 2 mph 1021.4mb 61f
2:20am  -   -   -   -  2 mph 1021.4mb 61f
2:10am  -   -   -  2 2 mph 1021.5mb 61f
2:00am  -   -   -  2 4 mph 1021.5mb 61f
1:50am 3ft 13s 9s 2 4 mph 1021.6mb 61f
1:40am  -   -   -  2 4 mph 1021.6mb 61f
1:30am  -   -   -  2 4 mph 1021.5mb 61f
1:20am  -   -   -  2 2 mph 1021.5mb 61f
1:10am  -   -   -   -  2 mph 1021.5mb 61f
1:00am  -   -   -   -  2 mph 1021.5mb 62f
12:50am 3ft 13s 9s  -  0 mph 1021.5mb 62f
12:40am 3ft  -  9s  -  2 mph 1021.5mb 62f
12:30am  -   -   -  2 2 mph 1021.5mb 62f
12:20am  -   -   -   -  2 mph 1021.6mb 62f
12:10am  -   -   -  2 2 mph 1021.6mb 62f
12:00am  -   -   -  2 4 mph 1021.6mb 61f
Mon 12/11 11:50pm 3ft 14s 8s 2 4 mph 1021.6mb 61f
11:40pm 3ft  -  8s 4 4 mph 1021.6mb 61f
11:30pm  -   -   -  4 4 mph 1021.6mb 61f
11:20pm  -   -   -  4 4 mph 1021.6mb 61f
11:10pm  -   -   -  4 7 mph 1021.7mb 61f
11:00pm  -   -   -  4 7 mph 1021.7mb 61f
10:50pm 3ft 15s 7s 4 7 mph 1021.7mb 61f
10:40pm 3ft  -  7s 4 7 mph 1021.7mb 61f
10:30pm  -   -   -  7 7 mph 1021.7mb 61f
10:20pm  -   -   -  7 9 mph 1021.7mb 61f
10:10pm  -   -   -  7 9 mph 1021.7mb 61f
10:00pm  -   -   -  9 9 mph 1021.7mb 61f
9:50pm 3.5ft 14s 8s 9 9 mph 1021.7mb 61f
9:40pm  -   -   -  9 9 mph 1021.6mb 61f
9:30pm  -   -   -  9 9 mph 1021.6mb 61f
9:20pm  -   -   -  9 11 mph 1021.6mb 61f
9:10pm  -   -   -  9 11 mph 1021.6mb 61f
9:00pm  -   -   -  11 11 mph 1021.5mb 62f
8:50pm 3ft 15s 8s 11 13 mph 1021.5mb 62f
8:40pm 3ft  -  8s 11 13 mph 1021.4mb 61f
8:30pm  -   -   -  9 11 mph 1021.6mb 61f
8:20pm  -   -   -  9 11 mph 1021.6mb 62f
8:10pm  -   -   -  9 11 mph 1021.6mb 62f
8:00pm  -   -   -  9 11 mph 1021.6mb 62f
7:50pm 3ft 14s 10s 9 11 mph 1021.6mb 62f
7:40pm 3ft  -  10s 7 9 mph 1021.6mb 62f
7:30pm  -   -   -  7 9 mph 1021.5mb 62f
7:20pm  -   -   -  7 9 mph 1021.5mb 62f
7:10pm  -   -   -  9 11 mph 1021.5mb 62f
7:00pm  -   -   -  9 11 mph 1021.5mb 62f
6:50pm 3ft 13s 10s 7 7 mph 1021.6mb 62f
6:40pm 3ft  -  10s 7 7 mph 1021.6mb 62f
6:30pm  -   -   -  9 11 mph 1021.6mb 62f
6:20pm  -   -   -  7 9 mph 1021.5mb 62f
6:10pm  -   -   -  7 7 mph 1021.5mb 62f
6:00pm  -   -   -  4 7 mph 1021.4mb 62f
5:50pm 3.5ft 15s 11s 7 7 mph 1021.3mb 62f
5:40pm  -   -   -  7 9 mph 1021.3mb 62f
5:30pm  -   -   -  7 9 mph 1021.3mb 62f
5:20pm  -   -   -  7 9 mph 1021.2mb 62f
5:10pm  -   -   -  7 9 mph 1021.1mb 62f
5:00pm  -   -   -  9 9 mph 1021.1mb 62f
4:50pm 3ft 13s 10s 7 9 mph 1021.1mb 62f
4:40pm 3ft  -  10s 7 9 mph 1021.1mb 62f
4:30pm  -   -   -  4 7 mph 1021mb 62f
4:20pm  -   -   -  7 7 mph 1021mb 62f
4:10pm  -   -   -  7 9 mph 1021mb 61f
4:00pm  -   -   -  7 9 mph 1021mb 61f
3:50pm 3ft 14s 10s 4 7 mph 1020.9mb 62f
3:40pm  -   -   -  4 7 mph 1020.9mb 62f
3:30pm  -   -   -  7 7 mph 1021mb -
3:20pm  -   -   -  4 7 mph 1021mb 62f
3:10pm  -   -   -  2 4 mph 1020.9mb 62f
3:00pm  -   -   -  4 7 mph 1020.9mb 61f
2:50pm 3.5ft 14s 10s 7 7 mph 1021mb 61f
2:40pm 3.5ft  -  10s 4 7 mph 1021mb 61f
2:30pm  -   -   -  4 7 mph 1021.1mb 61f
2:20pm  -   -   -  4 7 mph 1021.1mb 61f
2:10pm  -   -   -  4 7 mph 1021.2mb 61f
2:00pm  -   -   -  4 4 mph 1021.3mb 61f
1:50pm 3.5ft 13s 10s 4 4 mph 1021.3mb 61f
1:40pm  -   -   -  4 7 mph 1021.3mb 61f
1:30pm  -   -   -  4 7 mph 1021.3mb 61f
1:20pm  -   -   -  4 4 mph 1021.3mb 61f
1:10pm  -   -   -  2 4 mph 1021.3mb 61f
1:00pm  -   -   -  4 4 mph 1021.3mb 61f
12:50pm 3.5ft 15s 9s 2 4 mph 1021.3mb 61f
12:40pm  -   -   -  2 2 mph 1021.4mb 61f
12:30pm  -   -   -  2 4 mph 1021.6mb 61f
12:20pm  -   -   -  2 4 mph 1021.7mb 61f
12:10pm  -   -   -  2 4 mph 1021.9mb 61f
12:00pm  -   -   -  2 2 mph 1021.9mb 61f
11:50am 3.5ft 14s 10s 2 4 mph 1022.1mb 61f
11:40am 3.5ft  -  10s 2 2 mph 1022.2mb 61f
11:30am  -   -   -  2 2 mph 1022.4mb 61f
11:20am  -   -   -  2 2 mph 1022.5mb -
11:10am  -   -   -  2 4 mph 1022.6mb 61f
11:00am  -   -   -  4 4 mph 1022.8mb 61f
10:50am 3ft  -  9s 4 7 mph 1022.9mb -
10:40am 3ft 13s  -   -  mph - 61f
10:30am  -   -   -  2 4 mph 1023mb 61f
10:20am  -   -   -  4 4 mph 1023mb 61f
10:10am  -   -   -  4 4 mph 1022.9mb 61f
10:00am  -   -   -  2 4 mph 1022.9mb 61f
9:50am 3.5ft 14s 10s 4 4 mph 1022.9mb 60f
9:40am 3.5ft  -  10s 4 7 mph 1022.9mb 60f
9:30am  -   -   -  4 4 mph 1022.7mb 60f
9:20am  -   -   -  2 4 mph 1022.7mb 60f
9:10am  -   -   -  2 4 mph 1022.5mb 60f
9:00am  -   -   -  4 7 mph 1022.5mb 60f
8:50am 3.5ft 11s 10s 2 4 mph 1022.3mb 60f
8:40am  -   -   -  2 4 mph 1022.1mb 60f
8:30am  -   -   -  4 4 mph 1022.1mb 61f
8:20am  -   -   -  2 4 mph 1022mb 61f
8:10am  -   -   -   -  2 mph 1021.8mb 61f
8:00am  -   -   -  2 4 mph 1021.7mb 61f
7:50am 3.5ft 12s 10s 2 4 mph 1021.7mb 61f
7:40am 3.5ft  -  10s 2 4 mph 1021.6mb 61f
7:30am  -   -   -  2 2 mph 1021.5mb 61f
7:20am  -   -   -  2 4 mph 1021.5mb 61f
7:10am  -   -   -  2 2 mph 1021.4mb 61f
7:00am  -   -   -  2 2 mph 1021.2mb 61f
6:50am 3ft 12s 10s 2 2 mph 1021.1mb 61f
6:40am  -   -   -   -  2 mph 1021.1mb 61f
6:30am  -   -   -   -  2 mph 1020.9mb 61f
6:20am  -   -   -   -  2 mph 1020.7mb 61f
6:10am  -   -   -   -  2 mph 1020.8mb 61f
6:00am  -   -   -  2 4 mph 1020.5mb -
5:50am 3ft 14s 10s 4 7 mph 1020.5mb 61f
5:40am  -   -   -  4 4 mph 1020.4mb 61f
5:30am  -   -   -  4 4 mph 1020.3mb 61f
5:20am  -   -   -  4 4 mph 1020.1mb 61f
5:10am  -   -   -  4 7 mph 1020.1mb 61f
5:00am  -   -   -  4 4 mph 1020.2mb 61f
4:50am 3ft 13s 10s 2 4 mph 1020.2mb 60f
4:40am 3ft  -  10s 2 4 mph 1020.2mb 61f
4:30am  -   -   -  4 7 mph 1020.1mb 61f
4:20am  -   -   -  4 4 mph 1020mb 61f
4:10am  -   -   -  2 4 mph 1020.1mb 61f
4:00am  -   -   -  2 4 mph 1020.2mb 61f
3:50am 3ft 15s 10s 2 4 mph 1020.2mb 61f
3:40am 3ft  -  10s 2 4 mph 1020.3mb 61f
3:30am  -   -   -  4 4 mph 1020.4mb 61f
3:20am  -   -   -  2 4 mph 1020.4mb 61f
3:10am  -   -   -  2 2 mph 1020.4mb 61f
3:00am  -   -   -  2 4 mph 1020.4mb 61f
2:50am 3.5ft 11s 10s 4 4 mph 1020.4mb 61f
2:40am 3.5ft  -  10s 4 4 mph 1020.5mb 61f
2:30am  -   -   -  4 4 mph 1020.5mb 61f
2:20am  -   -   -  4 7 mph 1020.5mb 61f
2:10am  -   -   -  4 7 mph 1020.5mb 61f
2:00am  -   -   -  7 9 mph 1020.5mb 61f
1:50am 3ft 14s 9s 7 9 mph 1020.5mb 61f
1:40am  -   -   -  4 7 mph 1020.6mb 61f
1:30am  -   -   -  4 7 mph 1020.6mb 61f
1:20am  -   -   -  4 7 mph 1020.6mb 61f
1:10am  -   -   -  4 7 mph 1020.6mb 61f
1:00am  -   -   -  4 7 mph 1020.7mb 61f
12:50am 3.5ft 13s 10s 7 7 mph 1020.6mb 61f
12:40am 3.5ft  -  10s 7 7 mph 1020.7mb 61f
12:30am  -   -   -  7 7 mph 1020.7mb 61f
12:20am  -   -   -  7 9 mph 1020.7mb 61f
12:10am  -   -   -  7 11 mph 1020.7mb 61f
12:00am  -   -   -  9 11 mph 1020.8mb 60f
Sun 12/10 11:50pm 3.5ft 12s 8s 11 13 mph 1020.8mb 61f
11:40pm 3.5ft  -  8s 9 11 mph 1020.8mb 61f
11:30pm  -   -   -  9 11 mph 1020.8mb 61f
11:20pm  -   -   -  11 13 mph 1020.8mb 61f
11:10pm  -   -   -  11 13 mph 1020.8mb 61f
11:00pm  -   -   -  11 13 mph 1020.8mb 61f
10:50pm 3.5ft 11s 8s 11 13 mph 1020.7mb 61f
10:40pm  -   -   -  9 11 mph 1020.7mb 60f
10:30pm  -   -   -  7 9 mph 1020.7mb 60f
10:20pm  -   -   -  7 9 mph 1020.5mb 60f
10:10pm  -   -   -  7 9 mph 1020.5mb 60f
10:00pm  -   -   -  7 9 mph 1020.4mb 60f
9:50pm 3.5ft 13s 8s 7 9 mph 1020.3mb 60f
9:40pm 3.5ft  -  8s 7 9 mph 1020.2mb 60f
9:30pm  -   -   -  7 7 mph 1020.2mb 60f
9:20pm  -   -   -  4 7 mph 1020.1mb 60f
9:10pm  -   -   -  4 7 mph 1020.1mb 60f
9:00pm  -   -   -  2 4 mph 1020mb 60f
8:50pm 3.5ft 13s 8s 2 2 mph 1020mb 60f
8:40pm  -   -   -   -  2 mph 1019.9mb 60f
8:30pm  -   -   -  2 4 mph 1019.8mb 60f
8:20pm  -   -   -  2 4 mph 1019.7mb 60f
8:10pm  -   -   -  2 4 mph 1019.6mb 60f
8:00pm  -   -   -   -  2 mph 1019.5mb 60f
7:50pm 3.5ft 13s 9s  -  2 mph 1019.5mb 60f
7:40pm  -   -   -   -  2 mph 1019.4mb 60f
7:30pm  -   -   -   -  2 mph 1019.3mb 60f
7:20pm  -   -   -   -  2 mph 1019.2mb 60f
7:10pm  -   -   -  2 4 mph 1019.2mb 60f
7:00pm  -   -   -  2 2 mph 1019.2mb 60f
6:50pm 3.5ft 13s 9s  -  4 mph 1019.1mb 60f
6:40pm 3.5ft  -  9s  -  2 mph 1019.1mb 60f
6:30pm  -   -   -   -  2 mph 1019.1mb 60f
6:20pm  -   -   -  2 4 mph 1018.9mb 60f
6:10pm  -   -   -  4 7 mph 1018.9mb 60f
6:00pm  -   -   -  4 7 mph 1018.8mb 61f
5:50pm 3ft 15s 9s 4 7 mph 1018.7mb 60f
5:40pm 3ft  -  9s 4 7 mph 1018.6mb 60f
5:30pm  -   -   -  4 4 mph 1018.6mb 60f
5:20pm  -   -   -  4 4 mph 1018.5mb 60f
5:10pm  -   -   -  4 4 mph 1018.4mb -
5:00pm  -   -   -  4 7 mph 1018.3mb 60f
4:50pm 3.5ft 14s 10s 4 7 mph 1018.2mb 60f
4:40pm 3.5ft  -  10s 7 7 mph 1018.2mb 60f
4:30pm  -   -   -  7 7 mph 1018.1mb 60f
4:20pm  -   -   -  7 7 mph 1018.1mb 60f
4:10pm  -   -   -  7 7 mph 1018.1mb 60f
4:00pm  -   -   -  4 7 mph 1018.1mb 61f
3:50pm 3ft 15s 9s 4 7 mph 1018.3mb 61f
3:40pm  -   -   -  4 7 mph 1018.3mb 61f
3:30pm  -   -   -  2 2 mph 1018.3mb 61f
3:20pm  -   -   -   -  2 mph 1018.3mb 61f
3:10pm  -   -   -  2 4 mph 1018.3mb 61f
3:00pm  -   -   -  2 4 mph 1018.4mb 61f
2:50pm 3.5ft 14s 8s 4 7 mph 1018.3mb 61f
2:40pm 3.5ft  -  8s 4 9 mph 1018.3mb 61f
2:30pm  -   -   -  7 9 mph 1018.3mb 60f
2:20pm  -   -   -  7 9 mph 1018.4mb 60f
2:10pm  -   -   -  7 7 mph 1018.5mb 60f
2:00pm  -   -   -  4 4 mph 1018.6mb 60f
1:50pm 3ft 15s 9s 4 4 mph 1018.7mb 60f
1:40pm  -   -   -  4 4 mph 1018.7mb 60f
1:30pm  -   -   -  4 7 mph 1018.8mb 60f
1:20pm  -   -   -  4 7 mph 1018.9mb 60f
1:10pm  -   -   -  4 7 mph 1019mb 60f
1:00pm  -   -   -  7 7 mph 1019.1mb 60f
12:50pm 3.5ft 13s 9s 7 7 mph 1019.2mb 60f
12:40pm 3.5ft  -  9s 7 9 mph 1019.3mb 60f
12:30pm  -   -   -  7 9 mph 1019.4mb 60f
12:20pm  -   -   -  4 7 mph 1019.6mb 60f
12:10pm  -   -   -  4 7 mph 1019.7mb 60f
12:00pm  -   -   -  4 4 mph 1019.9mb 60f
11:50am 3.5ft 15s 9s 4 4 mph 1020.1mb 60f
11:40am 3.5ft  -  9s 2 4 mph 1020.2mb 60f
11:30am  -   -   -  2 4 mph 1020.5mb 60f
11:20am  -   -   -  4 4 mph 1020.6mb 60f
11:10am  -   -   -  4 4 mph 1020.8mb 60f
11:00am  -   -   -  4 9 mph 1021mb 60f
10:50am 3.5ft 13s 10s 7 9 mph 1021.1mb 60f
10:40am 3.5ft  -  10s 4 7 mph 1021.2mb 60f
10:30am  -   -   -  4 4 mph 1021.2mb 60f
10:20am  -   -   -  4 4 mph 1021.3mb 60f
10:10am  -   -   -  4 4 mph 1021.3mb -
10:00am  -   -   -  4 4 mph 1021.3mb 60f
9:50am 3.5ft 14s 9s 4 7 mph 1021.4mb 60f
9:40am 3.5ft  -  9s 4 7 mph 1021.5mb 60f
9:30am  -   -   -  4 7 mph 1021.5mb 60f
9:20am  -   -   -  4 7 mph 1021.4mb 60f
9:10am  -   -   -  7 9 mph 1021.3mb 60f
9:00am  -   -   -  7 9 mph 1021.3mb 60f
8:50am 3ft 14s 9s 7 7 mph 1021.3mb 60f
8:40am 3ft  -  9s 7 7 mph 1021.3mb 60f
8:30am  -   -   -  4 7 mph 1021.3mb 60f
8:20am  -   -   -  4 7 mph 1021.3mb 60f
8:10am  -   -   -  4 7 mph 1021.3mb 60f
8:00am  -   -   -  4 4 mph 1021.2mb 60f
7:50am 3ft 13s 9s 4 4 mph 1021.1mb 60f
7:40am 3ft  -  9s 4 4 mph 1021.1mb 60f
7:30am  -   -   -  2 4 mph 1021.1mb 60f
7:20am  -   -   -  2 2 mph 1021mb 60f
7:10am  -   -   -  2 2 mph 1020.9mb 60f
7:00am  -   -   -  2 4 mph 1020.8mb 60f
6:50am 3.5ft 15s 9s 2 4 mph 1020.8mb 60f
6:40am  -   -   -  2 4 mph 1020.7mb 60f
6:30am  -   -   -  2 2 mph 1020.8mb 60f
6:20am  -   -   -  2 4 mph 1020.8mb 60f
6:10am  -   -   -  4 4 mph 1020.7mb 60f
6:00am  -   -   -  4 7 mph 1020.7mb 60f
5:40am 3ft  -  8s 2 4 mph 1020.7mb 61f
5:30am  -   -   -  2 2 mph 1020.7mb 61f
5:20am  -   -   -  2 4 mph 1020.6mb 61f
5:10am  -   -   -  4 7 mph 1020.6mb 61f
5:00am  -   -   -  2 4 mph 1020.5mb 61f
4:50am 3.5ft 13s 7s 4 4 mph 1020.4mb 62f
4:40am 3.5ft  -  7s 4 7 mph 1020.3mb 62f
4:30am  -   -   -  2 7 mph 1020.2mb 62f
4:20am  -   -   -  4 7 mph 1020.2mb 62f
4:10am  -   -   -  7 7 mph 1020.2mb 62f
4:00am  -   -   -  7 7 mph 1020.2mb 62f
3:50am 3ft 15s 7s 4 7 mph 1020.2mb 62f
3:40am 3ft  -  7s 4 7 mph 1020.3mb 62f
3:30am  -   -   -  4 7 mph 1020.5mb 62f
3:20am  -   -   -  4 7 mph 1020.5mb 62f
3:10am  -   -   -  2 4 mph 1020.5mb 62f
3:00am  -   -   -  2 4 mph 1020.7mb 62f
2:50am 3ft 15s 7s 4 9 mph 1020.6mb 62f
2:40am 3ft  -  7s 7 9 mph 1020.6mb 62f
2:30am  -   -   -  7 9 mph 1020.5mb 62f
2:20am  -   -   -  4 7 mph 1020.5mb 62f
2:10am  -   -   -  4 7 mph 1020.4mb 62f
2:00am  -   -   -  4 7 mph 1020.3mb 62f
1:50am 3ft 15s 7s 4 7 mph 1020.4mb 62f
1:40am  -   -   -  7 11 mph 1020.5mb 62f
1:30am  -   -   -  9 11 mph 1020.5mb 62f
1:20am  -   -   -  9 11 mph 1020.4mb 62f
1:10am  -   -   -  9 11 mph 1020.5mb 62f
1:00am  -   -   -  11 13 mph 1020.5mb 62f
12:50am 3.5ft 15s 7s 9 11 mph 1020.5mb 62f
12:40am 3.5ft  -  7s 9 11 mph 1020.5mb 62f
12:30am  -   -   -  7 7 mph 1020.6mb 62f
12:20am  -   -   -  7 9 mph 1020.7mb 62f
12:10am  -   -   -  9 9 mph 1020.7mb 62f
12:00am  -   -   -  9 9 mph 1020.8mb 62f
Sat 12/09 11:50pm 3ft 14s 7s 9 11 mph 1020.9mb 62f
11:40pm 3ft  -  7s 9 11 mph 1021mb 62f
11:30pm  -   -   -  9 11 mph 1021.1mb 62f
11:20pm  -   -   -  7 9 mph 1021.1mb 62f
11:10pm  -   -   -  7 9 mph 1021mb 61f
11:00pm  -   -   -  7 9 mph 1021.1mb -
10:50pm 3ft 15s 6s 7 7 mph 1021.1mb 61f
10:40pm 3ft  -  6s 7 9 mph 1021.2mb 60f
10:30pm  -   -   -  7 9 mph 1021.2mb 60f
10:20pm  -   -   -  7 9 mph 1021.1mb 60f
10:10pm  -   -   -  9 9 mph 1021.2mb 60f
10:00pm  -   -   -  7 9 mph 1021.1mb 60f
9:50pm 3ft 14s 6s 9 11 mph 1021.2mb 60f
9:40pm 3ft  -  6s 9 11 mph 1021.1mb 60f
9:30pm  -   -   -  7 9 mph 1021.2mb 60f
9:20pm  -   -   -  9 9 mph 1021.2mb 60f
9:10pm  -   -   -  9 11 mph 1021.1mb 60f
9:00pm  -   -   -  11 11 mph 1021.1mb 60f
8:50pm 3ft 13s 6s 9 11 mph 1020.9mb 60f
8:40pm  -   -   -  9 11 mph 1020.9mb 60f
8:30pm  -   -   -  9 11 mph 1020.8mb 60f
8:20pm  -   -   -  9 11 mph 1020.8mb 60f
8:10pm  -   -   -  11 11 mph 1020.7mb 60f
8:00pm  -   -   -  11 13 mph 1020.7mb 60f
7:50pm 3ft 13s 6s 11 11 mph 1020.6mb 60f
7:40pm  -   -   -  9 13 mph 1020.5mb 60f
7:30pm  -   -   -  9 11 mph 1020.5mb 60f
7:20pm  -   -   -  9 11 mph 1020.5mb 60f
7:10pm  -   -   -  9 11 mph 1020.5mb 60f
7:00pm  -   -   -  11 11 mph 1020.4mb 60f
6:50pm 2.5ft 12s 8s 11 13 mph 1020.3mb 60f
6:40pm  -   -   -  9 11 mph 1020.3mb 60f
6:30pm  -   -   -  7 9 mph 1020.2mb 60f
6:20pm  -   -   -  4 7 mph 1020.1mb 60f
6:10pm  -   -   -  4 4 mph 1020mb 60f
6:00pm  -   -   -  4 7 mph 1019.9mb 60f
5:50pm 2.5ft 14s 10s 4 7 mph 1019.8mb 61f
5:40pm  -   -   -  4 7 mph 1019.7mb 60f
5:30pm  -   -   -  4 4 mph 1019.7mb 60f
5:20pm  -   -   -  2 4 mph 1019.7mb -
5:10pm  -   -   -  4 7 mph 1019.7mb 60f
5:00pm  -   -   -  4 7 mph 1019.7mb 60f
4:50pm 3ft 15s 10s 4 7 mph 1019.8mb 60f
4:40pm 3ft  -  10s 4 4 mph 1019.8mb 60f
4:30pm  -   -   -  4 7 mph 1019.7mb 60f
4:20pm  -   -   -  7 9 mph 1019.7mb 61f
4:10pm  -   -   -  7 7 mph 1019.7mb 61f
4:00pm  -   -   -  7 7 mph 1019.7mb 61f
3:50pm 3.5ft 15s 10s 7 7 mph 1019.6mb 61f
3:40pm  -   -   -  7 7 mph 1019.5mb 61f
3:30pm  -   -   -  4 7 mph 1019.5mb 60f
3:20pm  -   -   -  4 7 mph 1019.6mb 60f
3:10pm  -   -   -  4 7 mph 1019.6mb 60f
3:00pm  -   -   -  4 7 mph 1019.7mb 60f
2:50pm 2.5ft 15s 8s 4 7 mph 1019.7mb 60f
2:40pm 2.5ft  -  8s 4 7 mph 1019.7mb 61f
2:30pm  -   -   -  4 7 mph 1019.8mb 61f
2:20pm  -   -   -  4 7 mph 1019.9mb 62f
2:10pm  -   -   -  4 4 mph 1020mb 62f
2:00pm  -   -   -  4 7 mph 1019.9mb -
1:50pm 3ft 15s 10s 4 7 mph 1020mb 62f
1:40pm 3ft  -  10s 4 7 mph 1020mb 62f
1:30pm  -   -   -  4 4 mph 1020.1mb 62f
1:20pm  -   -   -  4 7 mph 1020.3mb 62f
1:10pm  -   -   -  4 7 mph 1020.3mb 62f
1:00pm  -   -   -  2 4 mph 1020.4mb -
12:50pm 2.5ft 14s 9s 4 4 mph 1020.5mb 62f
12:40pm  -   -   -  2 4 mph 1020.7mb 62f
12:30pm  -   -   -   -  2 mph 1020.8mb 62f
12:20pm  -   -   -   -  2 mph 1021.1mb 62f
12:10pm  -   -   -  2 2 mph 1021.3mb 62f
12:00pm  -   -   -  2 2 mph 1021.4mb 62f
11:50am 3.5ft 15s 10s 2 4 mph 1021.4mb 62f
11:40am 3.5ft  -  10s 2 4 mph 1021.7mb 61f